Time;durP1;ratioP1;P1;durP2;ratioP2;P2;SDS_P1;SDS_P2;PMS_P1;PMS_P2;Temp;Humidity;BMP_temperature;BMP_pressure;BME280_temperature;BME280_humidity;BME280_pressure;Samples;Min_cycle;Max_cycle;Signal;HPM_P1;HPM_P2
2023/03/01 00:02:20;;;;;;;42.53;19.50;;;-6.60;44.30;;;;;;8290026;28;20190;-66
2023/03/01 00:06:21;;;;;;;43.73;18.93;;;-6.70;99.90;;;;;;8294717;28;20221;-65
2023/03/01 00:10:22;;;;;;;37.60;16.40;;;-6.70;99.90;;;;;;8287020;28;20276;-66
2023/03/01 00:14:23;;;;;;;40.97;18.00;;;-6.70;1.00;;;;;;8291646;28;20197;-67
2023/03/01 00:18:25;;;;;;;44.80;20.50;;;-6.70;86.00;;;;;;8287755;28;20326;-67
2023/03/01 00:22:28;;;;;;;46.77;21.57;;;-6.70;1.00;;;;;;8296906;28;20199;-66
2023/03/01 00:26:29;;;;;;;43.80;20.33;;;-6.80;99.90;;;;;;8286766;28;20214;-66
2023/03/01 00:30:30;;;;;;;41.77;19.47;;;-6.80;1.00;;;;;;8291777;28;20245;-66
2023/03/01 00:34:30;;;;;;;45.00;20.77;;;-6.90;99.90;;;;;;8285739;28;20197;-66
2023/03/01 00:38:38;;;;;;;56.10;23.80;;;-6.90;99.90;;;;;;8291595;28;20188;-67
2023/03/01 00:42:39;;;;;;;64.17;26.93;;;-6.90;99.90;;;;;;8277350;28;20245;-66
2023/03/01 00:46:40;;;;;;;57.40;24.47;;;-6.90;99.90;;;;;;8288823;28;20242;-66
2023/03/01 00:50:41;;;;;;;55.70;24.13;;;-6.90;99.90;;;;;;8288196;28;20188;-66
2023/03/01 00:54:42;;;;;;;51.37;23.10;;;-6.90;36.40;;;;;;8285671;28;20190;-66
2023/03/01 00:58:43;;;;;;;52.20;21.93;;;-7.00;1.00;;;;;;8289246;28;20619;-66
2023/03/01 01:02:44;;;;;;;49.50;22.30;;;-7.10;99.90;;;;;;8291015;28;20196;-65
2023/03/01 01:06:46;;;;;;;50.50;23.33;;;-7.10;1.00;;;;;;8289701;28;20223;-67
2023/03/01 01:10:47;;;;;;;51.03;23.37;;;-7.20;99.90;;;;;;8288450;28;20183;-66
2023/03/01 01:14:48;;;;;;;47.47;21.63;;;-7.20;99.90;;;;;;8280649;28;20238;-66
2023/03/01 01:18:49;;;;;;;43.17;21.63;;;-7.20;99.90;;;;;;8292320;28;20194;-66
2023/03/01 01:22:51;;;;;;;53.87;24.53;;;-7.20;1.00;;;;;;8287891;28;20195;-66
2023/03/01 01:26:51;;;;;;;91.97;37.30;;;-7.20;1.00;;;;;;8301669;28;20210;-66
2023/03/01 01:30:52;;;;;;;101.50;41.83;;;-7.10;99.90;;;;;;8294214;28;20194;-66
2023/03/01 01:34:53;;;;;;;83.73;36.43;;;-7.00;1.00;;;;;;8290431;28;20232;-66
2023/03/01 01:38:54;;;;;;;73.67;30.17;;;-7.10;44.10;;;;;;8293891;28;20221;-66
2023/03/01 01:42:55;;;;;;;54.30;25.40;;;-7.20;99.90;;;;;;8278855;28;20206;-66
2023/03/01 01:47:03;;;;;;;48.20;21.87;;;-7.20;1.00;;;;;;8303208;28;20276;-67
2023/03/01 01:51:04;;;;;;;43.73;19.57;;;-7.30;99.90;;;;;;8287181;28;20186;-66
2023/03/01 01:55:10;;;;;;;46.03;21.37;;;-7.40;99.90;;;;;;8289392;28;20230;-67
2023/03/01 01:59:12;;;;;;;51.77;21.93;;;-7.40;99.90;;;;;;8279116;28;20205;-67
2023/03/01 02:03:18;;;;;;;42.30;20.83;;;-7.40;1.00;;;;;;8287507;28;20192;-66
2023/03/01 02:07:24;;;;;;;39.53;19.57;;;-7.40;99.90;;;;;;8291762;28;20300;-67
2023/03/01 02:11:27;;;;;;;53.37;22.60;;;-7.50;99.90;;;;;;8275213;28;20277;-66
2023/03/01 02:15:32;;;;;;;61.77;25.10;;;-7.50;1.00;;;;;;8282638;28;20199;-67
2023/03/01 02:19:51;;;;;;;60.23;26.23;;;-7.50;1.00;;;;;;8299014;28;20201;-67
2023/03/01 02:23:55;;;;;;;43.47;19.80;;;-7.50;1.00;;;;;;8287355;28;20220;-67
2023/03/01 02:28:17;;;;;;;41.70;18.83;;;-7.50;99.90;;;;;;8285870;28;20257;-66
2023/03/01 02:32:24;;;;;;;37.10;18.20;;;-7.50;90.60;;;;;;8281851;28;20175;-66
2023/03/01 02:36:30;;;;;;;46.90;20.27;;;-7.60;1.00;;;;;;8291389;28;20238;-67
2023/03/01 02:40:31;;;;;;;42.70;19.00;;;-7.60;1.00;;;;;;8283752;28;20195;-67
2023/03/01 02:44:32;;;;;;;43.43;19.07;;;-7.60;99.90;;;;;;8289374;28;20194;-67
2023/03/01 02:48:51;;;;;;;39.10;17.83;;;-7.70;99.90;;;;;;8285633;28;20219;-67
2023/03/01 02:53:02;;;;;;;37.33;16.87;;;-7.70;99.90;;;;;;8288608;28;20190;-67
2023/03/01 02:57:03;;;;;;;37.07;16.40;;;-7.80;9.90;;;;;;8285231;28;20230;-67
2023/03/01 03:01:04;;;;;;;39.43;16.73;;;-7.80;1.00;;;;;;8289557;28;20242;-66
2023/03/01 03:05:12;;;;;;;33.97;16.13;;;-7.80;1.00;;;;;;8288239;28;20245;-65
2023/03/01 03:09:13;;;;;;;29.87;14.97;;;-7.80;1.00;;;;;;8289228;28;20189;-66
2023/03/01 03:13:14;;;;;;;38.23;15.53;;;-7.90;1.00;;;;;;8287396;28;20183;-66
2023/03/01 03:17:15;;;;;;;32.57;16.10;;;-7.90;1.00;;;;;;8281518;28;20187;-66
2023/03/01 03:21:16;;;;;;;32.43;17.10;;;-7.90;1.00;;;;;;8291611;28;20183;-67
2023/03/01 03:25:18;;;;;;;34.37;16.30;;;-7.80;1.00;;;;;;8286506;28;20305;-67
2023/03/01 03:29:19;;;;;;;42.13;18.57;;;-7.80;24.10;;;;;;8298009;28;20176;-66
2023/03/01 03:33:19;;;;;;;40.17;18.53;;;-7.80;1.00;;;;;;8280387;28;20545;-67
2023/03/01 03:41:39;;;;;;;31.77;15.77;;;-7.90;99.90;;;;;;8286606;28;20191;-67
2023/03/01 03:45:41;;;;;;;28.93;14.83;;;-8.00;99.90;;;;;;8281902;28;20211;-67
2023/03/01 03:49:41;;;;;;;29.93;14.53;;;-8.00;1.00;;;;;;8309154;28;20287;-67
2023/03/01 03:53:43;;;;;;;28.20;13.43;;;-8.10;1.00;;;;;;8293579;28;20186;-66
2023/03/01 03:57:44;;;;;;;26.57;12.87;;;-8.10;1.00;;;;;;8290706;28;20182;-67
2023/03/01 04:01:45;;;;;;;30.97;14.50;;;-8.20;1.00;;;;;;8290819;28;20190;-66
2023/03/01 04:05:47;;;;;;;35.50;16.27;;;-8.20;1.00;;;;;;8294495;28;20286;-66
2023/03/01 04:09:47;;;;;;;38.70;15.43;;;-8.20;1.00;;;;;;8289554;28;20212;-66
2023/03/01 04:13:48;;;;;;;35.80;15.17;;;-8.20;1.00;;;;;;8283182;28;20184;-66
2023/03/01 04:17:51;;;;;;;31.83;14.43;;;-8.20;1.00;;;;;;8294915;28;20294;-66
2023/03/01 04:21:52;;;;;;;29.87;13.60;;;-8.20;1.00;;;;;;8302433;28;20271;-66
2023/03/01 04:25:56;;;;;;;58.10;28.83;;;-8.30;1.00;;;;;;8290202;28;20215;-66
2023/03/01 04:29:57;;;;;;;54.50;22.63;;;-8.20;1.00;;;;;;8288517;28;20187;-66
2023/03/01 04:33:58;;;;;;;51.30;23.73;;;-8.20;1.00;;;;;;8291214;28;20224;-66
2023/03/01 04:37:59;;;;;;;50.57;22.40;;;-8.20;99.90;;;;;;8290766;28;20297;-66
2023/03/01 04:42:00;;;;;;;47.47;19.97;;;-8.20;10.50;;;;;;8293038;28;20187;-66
2023/03/01 04:46:02;;;;;;;38.60;17.63;;;-8.20;1.00;;;;;;8285725;28;20219;-65
2023/03/01 04:50:03;;;;;;;30.43;15.70;;;-8.30;99.90;;;;;;8289957;28;20178;-66
2023/03/01 04:54:08;;;;;;;33.37;15.27;;;-8.40;1.00;;;;;;8291845;28;20182;-65
2023/03/01 04:58:09;;;;;;;29.50;14.47;;;-8.40;99.90;;;;;;8287642;28;20186;-66
2023/03/01 05:02:10;;;;;;;29.60;14.13;;;-8.40;1.00;;;;;;8287226;28;20268;-66
2023/03/01 05:06:11;;;;;;;32.67;13.77;;;-8.50;1.00;;;;;;8289979;28;20294;-67
2023/03/01 05:10:12;;;;;;;32.87;13.87;;;-8.50;99.90;;;;;;8288706;28;20369;-66
2023/03/01 05:14:13;;;;;;;34.37;15.87;;;-8.50;99.90;;;;;;8290187;28;20179;-66
2023/03/01 05:18:14;;;;;;;41.67;20.80;;;-8.50;99.90;;;;;;8294076;28;20230;-67
2023/03/01 05:22:15;;;;;;;52.77;22.70;;;-8.50;99.90;;;;;;8304118;28;20183;-66
2023/03/01 05:26:18;;;;;;;57.50;23.50;;;-8.50;99.90;;;;;;8285833;28;20213;-66
2023/03/01 05:30:19;;;;;;;51.43;18.93;;;-8.60;99.90;;;;;;8289771;28;20186;-67
2023/03/01 05:34:27;;;;;;;43.47;18.00;;;-8.60;99.90;;;;;;8289681;28;20266;-67
2023/03/01 05:38:27;;;;;;;38.07;17.03;;;-8.60;99.90;;;;;;8291900;28;20202;-67
2023/03/01 05:42:28;;;;;;;40.83;16.93;;;-8.70;99.90;;;;;;8284264;28;20183;-67
2023/03/01 05:46:29;;;;;;;32.60;15.20;;;-8.70;99.90;;;;;;8277352;28;20206;-67
2023/03/01 05:50:33;;;;;;;31.70;15.37;;;-8.70;99.90;;;;;;8286259;28;20211;-67
2023/03/01 05:54:34;;;;;;;27.10;13.97;;;-8.60;99.90;;;;;;8297096;28;20179;-67
2023/03/01 05:58:35;;;;;;;37.60;14.90;;;-8.60;99.90;;;;;;8290127;28;20262;-70
2023/03/01 06:02:36;;;;;;;45.37;17.60;;;-8.50;99.90;;;;;;8288278;28;20217;-69
2023/03/01 06:06:37;;;;;;;43.60;18.93;;;-8.40;99.90;;;;;;8287152;28;20228;-70
2023/03/01 06:10:38;;;;;;;47.60;20.63;;;-8.20;1.00;;;;;;8283015;28;20191;-70
2023/03/01 06:14:39;;;;;;;36.77;15.87;;;-8.00;1.00;;;;;;8287751;28;20182;-70
2023/03/01 06:18:41;;;;;;;44.00;19.27;;;-7.90;1.00;;;;;;8284545;28;20202;-69
2023/03/01 06:22:43;;;;;;;36.63;18.10;;;-7.70;65.00;;;;;;8291883;28;20183;-69
2023/03/01 06:26:43;;;;;;;35.40;16.73;;;-7.60;99.90;;;;;;8289523;28;20199;-69
2023/03/01 06:30:44;;;;;;;40.53;16.80;;;-7.40;99.90;;;;;;8286111;28;20215;-70
2023/03/01 06:34:45;;;;;;;33.40;15.47;;;-7.30;1.00;;;;;;8284201;28;20206;-70
2023/03/01 06:38:46;;;;;;;41.90;18.53;;;-7.20;1.00;;;;;;8292501;28;20186;-70
2023/03/01 06:42:51;;;;;;;41.47;19.33;;;-7.00;99.90;;;;;;8285027;28;20189;-68
2023/03/01 06:46:51;;;;;;;48.83;21.67;;;-6.80;1.00;;;;;;8291439;28;20234;-70
2023/03/01 06:50:52;;;;;;;52.03;24.87;;;-6.60;99.90;;;;;;8281988;28;20189;-70
2023/03/01 06:54:53;;;;;;;39.87;19.33;;;-6.30;99.90;;;;;;8295316;28;20269;-69
2023/03/01 06:58:54;;;;;;;41.17;19.80;;;-6.00;99.90;;;;;;8296885;28;20178;-71
2023/03/01 07:02:57;;;;;;;47.20;21.00;;;-5.70;99.90;;;;;;8294867;28;20198;-70
2023/03/01 07:06:58;;;;;;;42.67;20.07;;;-5.30;99.90;;;;;;8320399;28;20245;-70
2023/03/01 07:11:01;;;;;;;42.83;18.93;;;-5.00;1.00;;;;;;8292079;28;20201;-70
2023/03/01 07:15:03;;;;;;;40.50;19.77;;;-4.70;1.00;;;;;;8295374;28;20191;-71
2023/03/01 07:19:05;;;;;;;56.43;26.83;;;-4.30;99.90;;;;;;8287721;28;20194;-70
2023/03/01 07:23:06;;;;;;;45.67;23.53;;;-4.00;1.00;;;;;;8286518;28;20198;-70
2023/03/01 07:27:07;;;;;;;47.07;25.63;;;-3.70;26.90;;;;;;8307007;28;20226;-71
2023/03/01 07:31:08;;;;;;;44.83;24.77;;;-3.30;99.90;;;;;;8294894;28;20183;-70
2023/03/01 07:35:09;;;;;;;55.50;27.27;;;-3.00;99.90;;;;;;8293071;28;20218;-71
2023/03/01 07:39:10;;;;;;;49.30;24.07;;;-2.80;99.90;;;;;;8290181;28;20183;-71
2023/03/01 07:43:11;;;;;;;51.43;26.77;;;-2.50;99.90;;;;;;8285752;28;20188;-71
2023/03/01 07:47:12;;;;;;;68.73;30.40;;;-2.30;99.90;;;;;;8287416;28;20211;-71
2023/03/01 07:51:13;;;;;;;71.77;36.67;;;-2.10;99.90;;;;;;8287902;28;20197;-72
2023/03/01 07:55:15;;;;;;;63.30;33.23;;;-1.90;99.90;;;;;;8289711;28;20186;-72
2023/03/01 07:59:16;;;;;;;57.17;29.57;;;-1.70;25.00;;;;;;8290560;28;20197;-72
2023/03/01 08:03:17;;;;;;;55.70;30.83;;;-1.60;99.90;;;;;;8294158;28;20172;-71
2023/03/01 08:07:18;;;;;;;60.40;32.17;;;-1.40;99.90;;;;;;8283071;28;20338;-71
2023/03/01 08:11:18;;;;;;;53.80;30.27;;;-1.20;99.90;;;;;;8290740;28;20189;-71
2023/03/01 08:15:19;;;;;;;63.23;33.10;;;-1.00;99.90;;;;;;8290980;28;20177;-72
2023/03/01 08:19:20;;;;;;;57.33;32.47;;;-0.80;99.90;;;;;;8293772;28;20335;-71
2023/03/01 08:23:21;;;;;;;84.23;44.83;;;-0.60;99.90;;;;;;8291382;28;20191;-71
2023/03/01 08:27:22;;;;;;;78.07;42.50;;;-0.50;1.00;;;;;;8292833;28;20310;-71
2023/03/01 08:31:33;;;;;;;70.23;34.90;;;-0.40;99.90;;;;;;8304473;28;20181;-71
2023/03/01 08:35:34;;;;;;;58.53;31.57;;;-0.30;1.00;;;;;;8293754;28;20240;-70
2023/03/01 08:39:34;;;;;;;50.63;29.00;;;-0.20;99.90;;;;;;8279774;28;20186;-71
2023/03/01 08:43:35;;;;;;;43.40;27.07;;;0.00;99.90;;;;;;8290865;28;20186;-71
2023/03/01 08:47:36;;;;;;;48.83;26.17;;;0.10;70.70;;;;;;8284279;28;20215;-71
2023/03/01 08:51:38;;;;;;;45.67;25.30;;;0.30;1.00;;;;;;8294766;28;20187;-70
2023/03/01 08:55:38;;;;;;;58.43;33.10;;;0.60;1.00;;;;;;8289869;28;20214;-70
2023/03/01 08:59:40;;;;;;;63.57;35.27;;;0.70;99.90;;;;;;8290473;28;20187;-70
2023/03/01 09:03:41;;;;;;;49.40;29.23;;;0.90;1.00;;;;;;8289024;28;20632;-70
2023/03/01 09:07:42;;;;;;;48.60;30.30;;;0.90;99.90;;;;;;8289722;28;20206;-70
2023/03/01 09:11:45;;;;;;;41.70;24.67;;;1.00;99.90;;;;;;8280823;28;20184;-68
2023/03/01 09:15:46;;;;;;;35.47;20.30;;;1.20;99.90;;;;;;8297381;28;20185;-70
2023/03/01 09:19:47;;;;;;;26.60;17.23;;;1.40;99.90;;;;;;8288480;28;20254;-70
2023/03/01 09:23:49;;;;;;;39.03;19.90;;;1.50;99.90;;;;;;8290093;28;20426;-71
2023/03/01 09:27:53;;;;;;;33.27;19.23;;;1.60;99.90;;;;;;8284472;28;20269;-71
2023/03/01 09:31:54;;;;;;;30.13;17.77;;;1.80;99.90;;;;;;8288808;28;20179;-70
2023/03/01 09:36:07;;;;;;;21.97;13.77;;;2.00;99.90;;;;;;8284658;28;20238;-71
2023/03/01 09:40:15;;;;;;;25.20;15.30;;;2.20;85.80;;;;;;8293020;28;20198;-70
2023/03/01 09:44:34;;;;;;;23.23;14.50;;;2.40;64.80;;;;;;8286382;28;20227;-70
2023/03/01 09:49:03;;;;;;;19.73;12.00;;;2.50;48.00;;;;;;8284359;28;20217;-71
2023/03/01 09:53:09;;;;;;;18.47;12.47;;;2.70;38.20;;;;;;8281068;28;20203;-70
2023/03/01 09:57:46;;;;;;;17.50;11.77;;;2.90;24.00;;;;;;8289814;28;20186;-71
2023/03/01 10:02:07;;;;;;;20.43;12.33;;;3.10;8.50;;;;;;8279289;28;20193;-71
2023/03/01 10:06:34;;;;;;;18.47;12.60;;;3.20;5.10;;;;;;8288302;28;20310;-72
2023/03/01 10:10:38;;;;;;;19.73;12.00;;;3.30;4.60;;;;;;8288196;28;20208;-72
2023/03/01 10:14:48;;;;;;;17.80;11.40;;;3.50;1.00;;;;;;8287983;28;20185;-72
2023/03/01 10:18:57;;;;;;;22.30;13.87;;;3.50;1.00;;;;;;8285558;28;20225;-71
2023/03/01 10:22:57;;;;;;;19.10;11.77;;;3.70;1.00;;;;;;8288515;28;20177;-73
2023/03/01 10:27:05;;;;;;;22.47;12.40;;;3.80;1.00;;;;;;8286457;28;20211;-72
2023/03/01 10:31:14;;;;;;;18.13;11.43;;;3.90;1.00;;;;;;8289577;28;20269;-71
2023/03/01 10:35:29;;;;;;;26.57;14.67;;;4.00;1.00;;;;;;8290509;28;20228;-70
2023/03/01 10:39:29;;;;;;;18.13;12.40;;;4.10;1.00;;;;;;8296595;28;20186;-72
2023/03/01 10:43:49;;;;;;;21.33;13.17;;;4.20;1.00;;;;;;8290622;28;20186;-72
2023/03/01 10:48:03;;;;;;;17.80;11.77;;;4.30;1.00;;;;;;8293661;28;20199;-71
2023/03/01 10:52:22;;;;;;;20.23;13.37;;;4.40;1.00;;;;;;8288053;28;20321;-72
2023/03/01 10:56:25;;;;;;;21.23;12.80;;;4.50;1.00;;;;;;8306965;28;20249;-73
2023/03/01 11:00:27;;;;;;;15.37;11.10;;;4.60;1.00;;;;;;8293418;28;20251;-72
2023/03/01 11:04:28;;;;;;;17.17;12.67;;;4.60;1.00;;;;;;8291097;28;20191;-73
2023/03/01 11:08:33;;;;;;;19.57;11.90;;;4.60;1.00;;;;;;8290398;28;20300;-73
2023/03/01 11:12:34;;;;;;;16.33;11.33;;;4.70;1.00;;;;;;8291867;28;20498;-73
2023/03/01 11:16:37;;;;;;;16.43;11.93;;;4.80;1.00;;;;;;8320363;28;20443;-73
2023/03/01 11:20:39;;;;;;;19.20;12.77;;;4.90;1.00;;;;;;8292819;28;20266;-74
2023/03/01 11:24:54;;;;;;;25.77;15.67;;;5.10;1.00;;;;;;8291796;28;20201;-74
2023/03/01 11:29:00;;;;;;;26.60;14.87;;;5.20;1.00;;;;;;8276680;28;20215;-72
2023/03/01 11:33:04;;;;;;;20.40;11.67;;;5.40;1.00;;;;;;8291634;28;20261;-73
2023/03/01 11:37:28;;;;;;;16.47;10.37;;;5.50;1.00;;;;;;8295187;28;20222;-72
2023/03/01 11:41:33;;;;;;;15.93;10.80;;;5.50;1.00;;;;;;8292950;28;20213;-73
2023/03/01 11:46:06;;;;;;;13.53;9.63;;;5.60;1.00;;;;;;8289071;28;20252;-72
2023/03/01 11:50:22;;;;;;;14.23;9.90;;;5.60;1.00;;;;;;8289344;28;20189;-73
2023/03/01 11:55:09;;;;;;;15.87;10.10;;;5.70;1.00;;;;;;8289345;28;20242;-71
2023/03/01 11:59:13;;;;;;;13.20;9.67;;;5.70;1.00;;;;;;8293037;28;20195;-73
2023/03/01 12:03:38;;;;;;;12.70;9.33;;;5.80;1.00;;;;;;8309240;28;20187;-73
2023/03/01 12:08:05;;;;;;;12.37;8.57;;;5.90;1.00;;;;;;8292607;28;20353;-74
2023/03/01 12:12:18;;;;;;;14.97;8.70;;;5.90;1.00;;;;;;8292174;28;20195;-73
2023/03/01 12:16:24;;;;;;;14.90;9.43;;;5.80;1.00;;;;;;8293084;28;20190;-70
2023/03/01 12:20:31;;;;;;;10.80;7.57;;;5.90;1.00;;;;;;8307044;28;20191;-72
2023/03/01 12:25:00;;;;;;;11.63;7.63;;;5.90;1.00;;;;;;8292461;28;20199;-73
2023/03/01 12:29:22;;;;;;;10.60;6.23;;;6.00;1.00;;;;;;8295302;28;20565;-73
2023/03/01 12:33:38;;;;;;;10.83;6.33;;;6.10;1.00;;;;;;8287038;28;20282;-74
2023/03/01 12:38:12;;;;;;;20.47;10.50;;;6.10;1.00;;;;;;8296284;28;20214;-74
2023/03/01 12:42:48;;;;;;;11.10;7.97;;;6.10;1.00;;;;;;8312416;28;20210;-72
2023/03/01 12:47:23;;;;;;;15.93;9.07;;;6.20;1.00;;;;;;8298657;28;20223;-72
2023/03/01 12:51:28;;;;;;;13.13;8.30;;;6.20;1.00;;;;;;8302313;28;20183;-73
2023/03/01 12:55:42;;;;;;;15.70;10.23;;;6.30;1.00;;;;;;8290389;28;20247;-74
2023/03/01 13:00:09;;;;;;;24.50;12.87;;;6.30;1.00;;;;;;8296199;28;20191;-73
2023/03/01 13:04:17;;;;;;;14.80;9.47;;;6.40;1.00;;;;;;8296433;28;20183;-72
2023/03/01 13:08:48;;;;;;;14.73;9.00;;;6.50;1.00;;;;;;8301950;28;20215;-72
2023/03/01 13:12:49;;;;;;;13.53;8.07;;;6.50;1.00;;;;;;8284559;28;20241;-74
2023/03/01 13:16:52;;;;;;;13.30;8.80;;;6.50;1.00;;;;;;8304121;28;20191;-75
2023/03/01 13:20:59;;;;;;;14.83;10.30;;;6.60;1.00;;;;;;8303109;28;20183;-73
2023/03/01 13:25:19;;;;;;;20.07;11.77;;;6.60;1.00;;;;;;8290771;28;20206;-74
2023/03/01 13:29:27;;;;;;;17.50;10.27;;;6.60;1.00;;;;;;8309179;28;20214;-73
2023/03/01 13:33:28;;;;;;;12.53;8.90;;;6.60;1.00;;;;;;8300712;28;20236;-72
2023/03/01 13:37:37;;;;;;;10.93;7.73;;;6.60;1.00;;;;;;8299430;28;20215;-74
2023/03/01 13:41:40;;;;;;;22.40;12.63;;;6.60;1.00;;;;;;8297036;28;20609;-74
2023/03/01 13:45:43;;;;;;;16.03;9.17;;;6.60;1.00;;;;;;8304347;28;20288;-74
2023/03/01 13:49:52;;;;;;;9.67;6.80;;;6.60;1.00;;;;;;8306669;28;20438;-74
2023/03/01 13:53:55;;;;;;;8.07;5.27;;;6.50;1.00;;;;;;8303903;28;20218;-73
2023/03/01 13:57:59;;;;;;;7.73;5.03;;;6.50;1.00;;;;;;8303864;28;20520;-73
2023/03/01 14:02:01;;;;;;;8.17;6.13;;;6.60;1.00;;;;;;8300955;28;20199;-74
2023/03/01 14:06:08;;;;;;;6.23;3.90;;;6.60;1.00;;;;;;8300138;28;20237;-75
2023/03/01 14:10:12;;;;;;;7.27;4.23;;;6.60;1.00;;;;;;8291733;28;20186;-73
2023/03/01 14:14:38;;;;;;;6.90;5.03;;;6.50;1.00;;;;;;8291628;28;20222;-73
2023/03/01 14:18:52;;;;;;;8.30;4.80;;;6.50;1.00;;;;;;8300112;28;20185;-73
2023/03/01 14:22:56;;;;;;;8.27;5.23;;;6.40;1.00;;;;;;8284283;28;20240;-74
2023/03/01 14:26:57;;;;;;;6.50;4.73;;;6.30;1.00;;;;;;8298500;28;20206;-74
2023/03/01 14:31:00;;;;;;;6.63;4.40;;;6.30;1.00;;;;;;8297198;28;20189;-75
2023/03/01 14:35:01;;;;;;;8.33;4.67;;;6.20;1.00;;;;;;8307926;28;20327;-75
2023/03/01 14:39:17;;;;;;;8.00;5.10;;;6.20;1.00;;;;;;8299248;28;20399;-75
2023/03/01 14:43:22;;;;;;;6.97;5.90;;;6.20;1.00;;;;;;8295072;28;20223;-75
2023/03/01 14:47:32;;;;;;;8.83;4.93;;;6.10;1.00;;;;;;8288000;28;20222;-74
2023/03/01 14:51:39;;;;;;;6.67;4.97;;;6.00;1.00;;;;;;8293922;28;20220;-74
2023/03/01 14:55:44;;;;;;;6.17;4.40;;;6.00;1.00;;;;;;8287532;28;20188;-73
2023/03/01 14:59:47;;;;;;;11.10;6.33;;;6.00;1.00;;;;;;8290337;28;20190;-73
2023/03/01 15:03:49;;;;;;;12.00;5.90;;;5.90;1.00;;;;;;8292627;28;20184;-74
2023/03/01 15:07:51;;;;;;;6.17;4.70;;;5.90;1.00;;;;;;8277154;28;20604;-75
2023/03/01 15:11:52;;;;;;;8.57;4.73;;;5.90;1.00;;;;;;8287889;28;20236;-71
2023/03/01 15:16:02;;;;;;;12.23;6.77;;;5.80;1.00;;;;;;8283147;28;20187;-73
2023/03/01 15:20:14;;;;;;;13.33;8.50;;;5.70;1.00;;;;;;8297225;28;20199;-72
2023/03/01 15:24:24;;;;;;;9.13;5.83;;;5.60;1.00;;;;;;8289496;28;20221;-74
2023/03/01 15:28:40;;;;;;;9.77;6.07;;;5.50;1.00;;;;;;8291060;28;20203;-74
2023/03/01 15:32:42;;;;;;;7.77;5.17;;;5.40;1.00;;;;;;8286276;28;20192;-74
2023/03/01 15:36:45;;;;;;;9.10;5.63;;;5.40;1.00;;;;;;8290256;28;20516;-73
2023/03/01 15:40:50;;;;;;;9.77;7.03;;;5.30;1.00;;;;;;8286207;28;20234;-74
2023/03/01 15:45:08;;;;;;;9.67;6.53;;;5.30;1.00;;;;;;8287645;28;20207;-74
2023/03/01 15:49:31;;;;;;;9.80;6.40;;;5.10;1.00;;;;;;8293060;28;20661;-75
2023/03/01 15:53:32;;;;;;;11.43;7.60;;;5.00;1.00;;;;;;8305312;28;20209;-73
2023/03/01 15:57:33;;;;;;;11.93;7.37;;;4.80;1.00;;;;;;8305597;28;20211;-72
2023/03/01 16:01:34;;;;;;;10.77;7.13;;;4.60;1.00;;;;;;8296062;28;20183;-74
2023/03/01 16:05:36;;;;;;;11.97;7.20;;;4.30;1.00;;;;;;8296536;28;20186;-74
2023/03/01 16:09:36;;;;;;;12.20;8.57;;;4.10;1.00;;;;;;8288790;28;20190;-73
2023/03/01 16:13:37;;;;;;;12.67;8.47;;;3.90;1.00;;;;;;8293231;28;20190;-73
2023/03/01 16:17:38;;;;;;;10.40;6.73;;;3.60;1.00;;;;;;8298313;28;20197;-74
2023/03/01 16:21:39;;;;;;;10.47;6.57;;;3.40;1.00;;;;;;8292493;28;20191;-74
2023/03/01 16:25:40;;;;;;;9.20;5.77;;;3.00;1.00;;;;;;8306046;28;20592;-74
2023/03/01 16:29:41;;;;;;;9.43;5.63;;;2.70;1.00;;;;;;8296273;28;20179;-74
2023/03/01 16:33:42;;;;;;;8.87;5.57;;;2.30;1.00;;;;;;8290793;28;20187;-74
2023/03/01 16:37:43;;;;;;;10.43;6.70;;;1.90;1.00;;;;;;8283267;28;20221;-75
2023/03/01 16:41:44;;;;;;;11.03;6.80;;;1.60;1.00;;;;;;8294041;28;20191;-74
2023/03/01 16:45:46;;;;;;;10.00;6.47;;;1.20;1.00;;;;;;8289066;28;20636;-74
2023/03/01 16:49:46;;;;;;;10.97;7.27;;;0.90;1.00;;;;;;8289490;28;20182;-74
2023/03/01 16:53:48;;;;;;;10.77;6.23;;;0.60;1.00;;;;;;8290095;28;20186;-75
2023/03/01 16:57:52;;;;;;;12.97;7.10;;;0.30;1.00;;;;;;8301578;28;20182;-73
2023/03/01 17:01:53;;;;;;;10.93;6.70;;;0.00;1.00;;;;;;8300500;28;20190;-66
2023/03/01 17:05:53;;;;;;;12.03;7.47;;;-0.20;1.50;;;;;;8305573;28;20290;-67
2023/03/01 17:09:54;;;;;;;15.90;8.10;;;-0.40;20.70;;;;;;8290244;28;20251;-70
2023/03/01 17:13:55;;;;;;;34.97;15.37;;;-0.50;32.20;;;;;;8294353;28;20269;-67
2023/03/01 17:17:56;;;;;;;22.87;10.77;;;-0.70;44.80;;;;;;8292752;28;20203;-67
2023/03/01 17:21:57;;;;;;;16.03;8.73;;;-0.90;57.60;;;;;;8289567;28;20765;-68
2023/03/01 17:25:58;;;;;;;13.73;7.47;;;-1.10;76.70;;;;;;8285041;28;20224;-68
2023/03/01 17:29:59;;;;;;;17.87;8.67;;;-1.30;94.30;;;;;;8286739;28;20186;-67
2023/03/01 17:33:59;;;;;;;16.23;9.57;;;-1.50;99.90;;;;;;8285673;28;20242;-68
2023/03/01 17:38:00;;;;;;;30.00;12.20;;;-1.70;99.90;;;;;;8292902;28;20210;-68
2023/03/01 17:42:03;;;;;;;31.53;13.47;;;-1.80;99.90;;;;;;8287698;28;20199;-68
2023/03/01 17:46:04;;;;;;;34.00;14.40;;;-2.00;99.90;;;;;;8290032;28;20214;-68
2023/03/01 17:50:07;;;;;;;27.83;13.87;;;-2.10;99.90;;;;;;8285479;28;20289;-68
2023/03/01 17:54:07;;;;;;;20.33;12.23;;;-2.20;99.90;;;;;;8275471;28;20186;-67
2023/03/01 17:58:11;;;;;;;20.57;11.07;;;-2.30;99.90;;;;;;8291970;28;20293;-68
2023/03/01 18:02:12;;;;;;;23.00;11.83;;;-2.40;99.90;;;;;;8281678;28;20187;-68
2023/03/01 18:06:19;;;;;;;21.67;12.40;;;-2.60;99.90;;;;;;8290683;28;20214;-68
2023/03/01 18:10:20;;;;;;;28.33;13.67;;;-2.70;99.90;;;;;;8291845;28;20179;-67
2023/03/01 18:14:21;;;;;;;31.67;14.83;;;-2.80;99.90;;;;;;8285878;28;20586;-68
2023/03/01 18:18:22;;;;;;;34.27;15.07;;;-2.90;99.90;;;;;;8289562;28;20203;-66
2023/03/01 18:22:23;;;;;;;36.03;17.07;;;-3.00;99.90;;;;;;8280538;28;20209;-66
2023/03/01 18:26:26;;;;;;;37.27;16.67;;;-3.10;99.90;;;;;;8292600;28;20206;-68
2023/03/01 18:30:27;;;;;;;35.50;17.33;;;-3.20;99.90;;;;;;8285137;28;20191;-67
2023/03/01 18:34:28;;;;;;;31.40;15.13;;;-3.20;99.90;;;;;;8291673;28;20245;-66
2023/03/01 18:38:29;;;;;;;31.47;15.73;;;-3.30;99.90;;;;;;8286284;28;20600;-66
2023/03/01 18:42:30;;;;;;;35.37;16.10;;;-3.30;99.90;;;;;;8286094;28;20201;-66
2023/03/01 18:46:31;;;;;;;75.80;27.10;;;-3.40;99.90;;;;;;8284732;28;20215;-65
2023/03/01 18:50:32;;;;;;;76.83;28.60;;;-3.40;1.00;;;;;;8285568;28;20186;-66
2023/03/01 18:54:34;;;;;;;44.33;20.80;;;-3.50;1.00;;;;;;8305692;28;20190;-66
2023/03/01 18:58:37;;;;;;;35.13;16.80;;;-3.50;1.00;;;;;;8298191;28;20187;-66
2023/03/01 19:02:38;;;;;;;27.70;14.20;;;-3.60;1.00;;;;;;8284790;28;20182;-65
2023/03/01 19:06:39;;;;;;;27.07;12.93;;;-3.70;1.00;;;;;;8287240;28;20241;-66
2023/03/01 19:10:39;;;;;;;27.63;13.57;;;-3.80;1.00;;;;;;8292642;28;20183;-66
2023/03/01 19:14:40;;;;;;;25.93;12.10;;;-3.90;1.00;;;;;;8292551;28;20186;-66
2023/03/01 19:18:48;;;;;;;31.00;13.73;;;-4.00;1.00;;;;;;8288153;28;20222;-66
2023/03/01 19:22:49;;;;;;;30.03;13.97;;;-4.00;1.00;;;;;;8289975;28;20282;-66
2023/03/01 19:26:50;;;;;;;27.00;13.80;;;-4.10;15.80;;;;;;8324778;28;20218;-67
2023/03/01 19:30:51;;;;;;;26.67;13.17;;;-4.10;56.00;;;;;;8289826;28;20179;-64
2023/03/01 19:34:52;;;;;;;23.43;13.07;;;-4.20;99.90;;;;;;8283687;28;20225;-63
2023/03/01 19:38:53;;;;;;;24.10;12.90;;;-4.30;99.90;;;;;;8291504;28;20191;-64
2023/03/01 19:42:54;;;;;;;22.87;12.40;;;-4.30;99.90;;;;;;8294220;28;20236;-63
2023/03/01 19:46:58;;;;;;;25.63;12.30;;;-4.40;99.90;;;;;;8295354;28;20210;-68
2023/03/01 19:50:59;;;;;;;23.63;12.10;;;-4.40;99.90;;;;;;8292173;28;20192;-63
2023/03/01 19:55:00;;;;;;;24.13;11.80;;;-4.50;99.90;;;;;;8291685;28;20186;-63
2023/03/01 19:59:03;;;;;;;26.17;13.73;;;-4.50;99.90;;;;;;8294104;28;20195;-63
2023/03/01 20:03:04;;;;;;;23.63;12.47;;;-4.50;99.90;;;;;;8288127;28;20289;-63
2023/03/01 20:07:05;;;;;;;19.40;10.37;;;-4.60;99.90;;;;;;8295733;28;20219;-64
2023/03/01 20:11:12;;;;;;;23.13;12.20;;;-4.60;1.00;;;;;;8288721;28;20210;-63
2023/03/01 20:15:13;;;;;;;25.30;11.73;;;-4.70;1.00;;;;;;8281325;28;20216;-65
2023/03/01 20:19:14;;;;;;;22.83;11.73;;;-4.70;1.00;;;;;;8290674;28;20183;-63
2023/03/01 20:23:15;;;;;;;22.80;12.60;;;-4.80;1.00;;;;;;8288971;28;20187;-64
2023/03/01 20:27:16;;;;;;;19.23;10.87;;;-4.80;13.10;;;;;;8276632;28;20226;-64
2023/03/01 20:31:19;;;;;;;21.20;11.53;;;-4.90;16.60;;;;;;8286049;28;20185;-65
2023/03/01 20:35:21;;;;;;;32.33;15.53;;;-5.00;99.40;;;;;;8285055;28;20210;-65
2023/03/01 20:39:21;;;;;;;42.87;21.10;;;-5.00;99.90;;;;;;8293277;28;20190;-64
2023/03/01 20:43:22;;;;;;;56.27;25.03;;;-5.00;99.90;;;;;;8285453;28;20188;-64
2023/03/01 20:47:23;;;;;;;39.47;20.13;;;-5.10;99.90;;;;;;8295117;28;20218;-63
2023/03/01 20:51:25;;;;;;;33.27;15.47;;;-5.10;99.90;;;;;;8289069;28;20191;-63
2023/03/01 20:55:25;;;;;;;26.37;12.53;;;-5.20;99.90;;;;;;8286057;28;20216;-63
2023/03/01 20:59:26;;;;;;;25.50;13.80;;;-5.30;99.90;;;;;;8289477;28;20190;-64
2023/03/01 21:03:27;;;;;;;107.47;34.03;;;-5.30;1.00;;;;;;8290335;28;20203;-64
2023/03/01 21:07:28;;;;;;;72.13;25.80;;;-5.30;1.00;;;;;;8287718;28;20221;-63